Time;durP1;ratioP1;P1;durP2;ratioP2;P2;SDS_P1;SDS_P2;PMS_P1;PMS_P2;Temp;Humidity;BMP_temperature;BMP_pressure;BME280_temperature;BME280_humidity;BME280_pressure;Samples;Min_cycle;Max_cycle;Signal;HPM_P1;HPM_P2
2022/06/01 00:02:15;;;;;;;8.82;2.50;;;18.40;99.90;;;;;;5035667;28;20044;-72
2022/06/01 00:04:41;;;;;;;10.55;3.65;;;18.30;99.90;;;;;;5014569;28;20478;-72
2022/06/01 00:07:06;;;;;;;6.38;3.15;;;18.20;99.90;;;;;;5017752;28;20068;-72
2022/06/01 00:09:32;;;;;;;4.68;2.40;;;18.10;99.90;;;;;;5003005;28;20854;-72
2022/06/01 00:11:58;;;;;;;5.75;3.38;;;18.10;99.90;;;;;;5019927;28;20083;-72
2022/06/01 00:14:24;;;;;;;5.03;2.75;;;18.00;99.90;;;;;;5015073;28;20021;-72
2022/06/01 00:16:55;;;;;;;6.32;2.83;;;17.90;99.90;;;;;;5030345;28;20029;-72
2022/06/01 00:19:22;;;;;;;4.60;3.03;;;17.90;99.90;;;;;;5027535;28;20176;-72
2022/06/01 00:24:33;;;;;;;6.68;2.85;;;17.80;99.90;;;;;;5024136;28;20542;-72
2022/06/01 00:26:59;;;;;;;6.25;2.85;;;17.70;99.90;;;;;;5010231;28;20024;-72
2022/06/01 00:29:25;;;;;;;7.80;3.33;;;17.70;99.90;;;;;;5033107;28;20049;-72
2022/06/01 00:31:51;;;;;;;6.38;2.85;;;17.70;99.90;;;;;;5032040;28;20064;-72
2022/06/01 00:34:17;;;;;;;24.52;3.17;;;17.60;99.90;;;;;;5017659;28;20485;-72
2022/06/01 00:36:43;;;;;;;5.85;2.80;;;17.60;99.90;;;;;;5017878;28;20026;-72
2022/06/01 00:39:09;;;;;;;4.15;2.80;;;17.60;99.90;;;;;;5030223;28;20045;-72
2022/06/01 00:41:35;;;;;;;5.43;2.22;;;17.50;99.90;;;;;;5000725;28;20026;-72
2022/06/01 00:44:01;;;;;;;6.90;2.60;;;17.40;99.90;;;;;;5020463;28;20026;-72
2022/06/01 00:46:26;;;;;;;5.57;2.45;;;17.40;99.90;;;;;;5002497;28;20849;-72
2022/06/01 00:48:56;;;;;;;3.45;2.22;;;17.30;99.90;;;;;;5024372;28;20429;-72
2022/06/01 00:51:26;;;;;;;4.10;3.17;;;17.30;99.90;;;;;;5022696;28;20437;-72
2022/06/01 00:53:54;;;;;;;7.15;2.85;;;17.30;99.90;;;;;;5027458;28;20017;-72
2022/06/01 00:56:31;;;;;;;4.65;2.38;;;17.30;99.90;;;;;;5025752;28;20437;-72
2022/06/01 00:59:00;;;;;;;8.48;2.80;;;17.30;99.90;;;;;;5029207;28;20013;-72
2022/06/01 01:01:27;;;;;;;4.78;2.70;;;17.30;99.90;;;;;;5034592;28;20053;-72
2022/06/01 01:03:57;;;;;;;7.60;2.53;;;17.30;99.90;;;;;;5032795;28;20028;-72
2022/06/01 01:06:25;;;;;;;4.70;2.70;;;17.40;99.90;;;;;;5028299;28;20030;-73
2022/06/01 01:08:51;;;;;;;6.28;3.05;;;17.30;99.90;;;;;;5029262;28;20033;-72
2022/06/01 01:11:24;;;;;;;4.55;2.90;;;17.30;99.90;;;;;;5020156;28;20049;-72
2022/06/01 01:13:53;;;;;;;8.75;2.70;;;17.30;99.90;;;;;;5000973;28;20026;-72
2022/06/01 01:16:20;;;;;;;4.85;2.25;;;17.20;99.90;;;;;;5013764;28;20029;-72
2022/06/01 01:18:47;;;;;;;8.13;2.90;;;17.20;99.90;;;;;;5027495;28;20018;-72
2022/06/01 01:21:44;;;;;;;8.95;2.97;;;17.20;99.90;;;;;;5025357;28;20036;-72
2022/06/01 01:24:31;;;;;;;5.10;2.63;;;17.10;99.90;;;;;;4948449;28;21157;-72
2022/06/01 01:26:57;;;;;;;4.78;2.70;;;17.10;99.90;;;;;;5027971;28;20022;-72
2022/06/01 01:29:36;;;;;;;10.50;3.30;;;17.00;99.90;;;;;;5034319;28;20389;-72
2022/06/01 01:32:02;;;;;;;5.03;2.88;;;17.00;99.90;;;;;;5031723;28;20029;-72
2022/06/01 01:34:28;;;;;;;5.60;3.03;;;16.90;99.90;;;;;;5021130;28;20022;-72
2022/06/01 01:37:00;;;;;;;7.80;3.05;;;16.90;99.90;;;;;;5036997;28;20497;-72
2022/06/01 01:39:30;;;;;;;5.10;2.42;;;16.80;99.90;;;;;;5036067;28;20533;-72
2022/06/01 01:41:56;;;;;;;8.45;2.78;;;16.80;99.90;;;;;;5032446;28;20080;-72
2022/06/01 01:44:29;;;;;;;5.22;2.38;;;16.70;99.90;;;;;;5033232;28;20025;-72
2022/06/01 01:46:58;;;;;;;3.67;2.58;;;16.70;99.90;;;;;;5025463;28;20540;-72
2022/06/01 01:49:31;;;;;;;5.63;3.25;;;16.70;99.90;;;;;;5022742;28;20026;-72
2022/06/01 01:52:00;;;;;;;5.38;2.75;;;16.60;99.90;;;;;;5011111;28;20041;-72
2022/06/01 01:54:49;;;;;;;5.05;2.33;;;16.60;99.90;;;;;;5013773;28;20121;-72
2022/06/01 01:57:22;;;;;;;4.88;2.78;;;16.60;99.90;;;;;;5008220;28;20033;-72
2022/06/01 01:59:58;;;;;;;8.10;3.00;;;16.60;99.90;;;;;;5012199;28;20469;-72
2022/06/01 02:02:50;;;;;;;15.43;3.17;;;16.60;99.90;;;;;;5012602;28;20026;-72
2022/06/01 02:08:27;;;;;;;11.25;3.13;;;16.40;99.90;;;;;;5034812;28;20400;-72
2022/06/01 02:13:45;;;;;;;11.95;3.20;;;16.40;99.90;;;;;;5038457;28;20036;-72
2022/06/01 02:16:12;;;;;;;11.07;3.97;;;16.40;99.90;;;;;;5027559;28;20018;-72
2022/06/01 02:18:48;;;;;;;7.97;3.17;;;16.40;99.90;;;;;;5002943;28;20430;-72
2022/06/01 02:21:25;;;;;;;6.32;3.30;;;16.40;99.90;;;;;;5021535;28;20021;-72
2022/06/01 02:23:53;;;;;;;7.85;3.78;;;16.40;99.90;;;;;;5006530;28;20064;-72
2022/06/01 02:26:20;;;;;;;6.78;3.38;;;16.30;99.90;;;;;;5025815;28;20018;-72
2022/06/01 02:28:49;;;;;;;8.48;3.13;;;16.30;99.90;;;;;;5026833;28;20030;-72
2022/06/01 02:31:17;;;;;;;6.40;3.58;;;16.30;99.90;;;;;;5028897;28;20017;-72
2022/06/01 02:33:46;;;;;;;6.80;3.55;;;16.20;99.90;;;;;;5029502;28;20025;-72
2022/06/01 02:36:15;;;;;;;10.80;4.07;;;16.20;99.90;;;;;;5036001;28;20062;-72
2022/06/01 02:38:48;;;;;;;15.20;4.25;;;16.20;99.90;;;;;;5035506;28;20493;-72
2022/06/01 02:43:58;;;;;;;9.32;3.83;;;16.20;99.90;;;;;;5029498;28;20190;-72
2022/06/01 02:46:25;;;;;;;12.43;3.90;;;16.20;99.90;;;;;;5031385;28;20037;-72
2022/06/01 02:48:51;;;;;;;5.07;3.42;;;16.20;99.90;;;;;;5014565;28;20058;-71
2022/06/01 02:51:18;;;;;;;7.10;4.10;;;16.20;99.90;;;;;;5014941;28;20026;-71
2022/06/01 02:53:45;;;;;;;6.07;3.90;;;16.20;99.90;;;;;;5010837;28;20038;-71
2022/06/01 02:56:12;;;;;;;8.30;3.50;;;16.10;99.90;;;;;;5000039;28;20023;-72
2022/06/01 02:58:38;;;;;;;7.93;3.75;;;16.10;99.90;;;;;;5000514;28;20023;-72
2022/06/01 03:01:04;;;;;;;8.38;4.07;;;16.10;99.90;;;;;;5001879;28;20022;-72
2022/06/01 03:03:31;;;;;;;6.75;3.90;;;16.10;99.90;;;;;;5002952;28;20061;-72
2022/06/01 03:05:58;;;;;;;10.38;4.20;;;16.10;99.90;;;;;;5002608;28;20114;-73
2022/06/01 03:08:25;;;;;;;9.25;3.67;;;16.00;99.90;;;;;;5007959;28;20061;-73
2022/06/01 03:10:51;;;;;;;10.45;4.25;;;16.00;99.90;;;;;;5010377;28;20057;-73
2022/06/01 03:13:18;;;;;;;6.35;4.38;;;16.00;99.90;;;;;;5012368;28;20037;-73
2022/06/01 03:15:43;;;;;;;10.20;3.72;;;15.90;99.90;;;;;;5008586;28;20447;-73
2022/06/01 03:18:09;;;;;;;5.88;3.78;;;15.90;99.90;;;;;;5014173;28;20022;-73
2022/06/01 03:20:37;;;;;;;4.47;3.17;;;15.80;99.90;;;;;;5010679;28;20019;-73
2022/06/01 03:23:04;;;;;;;6.55;3.92;;;15.80;99.90;;;;;;5014768;28;20099;-73
2022/06/01 03:25:30;;;;;;;12.10;3.83;;;15.80;99.90;;;;;;5016241;28;20030;-73
2022/06/01 03:27:59;;;;;;;10.30;4.55;;;15.80;99.90;;;;;;5009416;28;20046;-73
2022/06/01 03:30:26;;;;;;;6.63;3.75;;;15.80;99.90;;;;;;5000288;28;20030;-72
2022/06/01 03:32:53;;;;;;;9.52;4.07;;;15.70;99.90;;;;;;4998735;28;20022;-73
2022/06/01 03:35:22;;;;;;;9.02;3.83;;;15.70;99.90;;;;;;5002675;28;20001;-73
2022/06/01 03:37:48;;;;;;;9.23;3.83;;;15.70;99.90;;;;;;5001877;28;20022;-73
2022/06/01 03:40:16;;;;;;;7.38;3.80;;;15.70;99.90;;;;;;5004509;28;20113;-73
2022/06/01 03:42:41;;;;;;;9.23;3.92;;;15.70;99.90;;;;;;5006968;28;20041;-73
2022/06/01 03:47:55;;;;;;;7.32;3.60;;;15.60;99.90;;;;;;5019007;28;20044;-73
2022/06/01 03:50:23;;;;;;;6.28;3.67;;;15.60;99.90;;;;;;5030939;28;20064;-73
2022/06/01 03:52:50;;;;;;;7.35;4.10;;;15.60;99.90;;;;;;5030372;28;20030;-73
2022/06/01 03:55:16;;;;;;;8.27;3.75;;;15.50;99.90;;;;;;5015254;28;20033;-73
2022/06/01 03:57:43;;;;;;;9.15;4.10;;;15.50;99.90;;;;;;5034152;28;20099;-73
2022/06/01 04:00:13;;;;;;;10.13;4.20;;;15.50;99.90;;;;;;5035378;28;20026;-73
2022/06/01 04:02:39;;;;;;;11.63;4.73;;;15.50;99.90;;;;;;5019334;28;20022;-73
2022/06/01 04:05:06;;;;;;;9.32;4.07;;;15.50;99.90;;;;;;5018402;28;20288;-73
2022/06/01 04:07:32;;;;;;;11.45;4.65;;;15.40;99.90;;;;;;5019331;28;20033;-73
2022/06/01 04:09:58;;;;;;;11.35;5.63;;;15.40;99.90;;;;;;5022527;28;20018;-73
2022/06/01 04:12:24;;;;;;;6.47;4.07;;;15.40;99.90;;;;;;5003638;28;20037;-73
2022/06/01 04:14:50;;;;;;;8.75;4.03;;;15.40;99.90;;;;;;5009094;28;20029;-73
2022/06/01 04:17:16;;;;;;;11.15;3.97;;;15.40;99.90;;;;;;5011459;28;20022;-73
2022/06/01 04:19:41;;;;;;;4.90;3.78;;;15.40;99.90;;;;;;5036557;28;20429;-73
2022/06/01 04:22:10;;;;;;;15.23;5.03;;;15.30;99.90;;;;;;5007608;28;20056;-73
2022/06/01 04:24:36;;;;;;;8.20;3.88;;;15.30;99.90;;;;;;5032149;28;20021;-72
2022/06/01 04:27:03;;;;;;;8.30;4.40;;;15.40;99.90;;;;;;4994731;28;20425;-72
2022/06/01 04:29:29;;;;;;;9.07;4.38;;;15.30;99.90;;;;;;5018595;28;20018;-72
2022/06/01 04:32:05;;;;;;;10.15;4.45;;;15.40;99.90;;;;;;5014257;28;20576;-72
2022/06/01 04:34:32;;;;;;;6.95;4.10;;;15.30;99.90;;;;;;5035258;28;20076;-72
2022/06/01 04:36:58;;;;;;;6.85;4.43;;;15.40;99.90;;;;;;5016471;28;20029;-73
2022/06/01 04:39:24;;;;;;;10.32;4.15;;;15.40;99.90;;;;;;5018236;28;20141;-74
2022/06/01 04:41:50;;;;;;;8.77;3.85;;;15.40;99.90;;;;;;5021212;28;20046;-72
2022/06/01 04:44:16;;;;;;;5.80;3.90;;;15.40;99.90;;;;;;5030531;28;20034;-72
2022/06/01 04:46:42;;;;;;;16.80;4.97;;;15.50;99.90;;;;;;5009038;28;20037;-73
2022/06/01 04:49:08;;;;;;;9.93;4.18;;;15.50;99.90;;;;;;5031407;28;20038;-72
2022/06/01 04:51:35;;;;;;;8.30;4.10;;;15.50;99.90;;;;;;5028507;28;20033;-72
2022/06/01 04:54:02;;;;;;;6.03;3.67;;;15.60;99.90;;;;;;5017537;28;20037;-72
2022/06/01 04:56:27;;;;;;;10.60;4.25;;;15.60;99.90;;;;;;5036540;28;20104;-73
2022/06/01 04:58:54;;;;;;;7.72;4.30;;;15.70;99.90;;;;;;5021590;28;20099;-72
2022/06/01 05:01:20;;;;;;;8.57;4.00;;;15.80;99.90;;;;;;5037625;28;20034;-72
2022/06/01 05:03:46;;;;;;;8.13;4.43;;;15.90;99.90;;;;;;5021443;28;20031;-72
2022/06/01 05:06:11;;;;;;;11.27;5.13;;;15.90;99.90;;;;;;5005988;28;20046;-72
2022/06/01 05:08:37;;;;;;;9.38;4.45;;;16.00;99.90;;;;;;5023345;28;20029;-73
2022/06/01 05:11:03;;;;;;;9.43;4.65;;;16.20;99.90;;;;;;5026325;28;20026;-72
2022/06/01 05:13:30;;;;;;;12.13;3.70;;;16.30;99.90;;;;;;5025995;28;20026;-73
2022/06/01 05:15:58;;;;;;;11.52;4.25;;;16.30;99.90;;;;;;5017157;28;20021;-73
2022/06/01 05:18:25;;;;;;;11.07;4.03;;;16.40;99.90;;;;;;5029447;28;20025;-72
2022/06/01 05:20:53;;;;;;;11.20;3.75;;;16.50;99.90;;;;;;5011745;28;20021;-72
2022/06/01 05:23:19;;;;;;;9.65;4.47;;;16.50;99.90;;;;;;5015073;28;20025;-72
2022/06/01 05:25:47;;;;;;;10.65;4.72;;;16.70;99.90;;;;;;5032225;28;20349;-72
2022/06/01 05:28:18;;;;;;;8.20;4.50;;;16.80;99.90;;;;;;5036304;28;20057;-72
2022/06/01 05:30:44;;;;;;;8.05;3.65;;;17.00;99.90;;;;;;5016760;28;20017;-72
2022/06/01 05:33:10;;;;;;;6.60;3.92;;;17.10;99.90;;;;;;5037547;28;20029;-72
2022/06/01 05:35:36;;;;;;;9.20;3.65;;;17.20;99.90;;;;;;5019590;28;20028;-72
2022/06/01 05:38:01;;;;;;;9.65;3.70;;;17.20;99.90;;;;;;5028483;28;20410;-72
2022/06/01 05:40:30;;;;;;;10.27;3.80;;;17.30;99.90;;;;;;5019260;28;20051;-73
2022/06/01 05:42:57;;;;;;;8.18;4.18;;;17.40;99.90;;;;;;5039417;28;20017;-73
2022/06/01 05:45:23;;;;;;;7.55;3.45;;;17.50;99.90;;;;;;5035858;28;20022;-73
2022/06/01 05:47:49;;;;;;;5.97;3.55;;;17.60;99.90;;;;;;5023675;28;20050;-73
2022/06/01 05:50:16;;;;;;;9.15;3.85;;;17.60;99.90;;;;;;5037329;28;20024;-72
2022/06/01 05:52:41;;;;;;;14.32;4.03;;;17.70;99.90;;;;;;5038091;28;20021;-73
2022/06/01 05:55:09;;;;;;;9.10;3.80;;;17.80;99.90;;;;;;5015710;28;20120;-72
2022/06/01 05:57:35;;;;;;;10.45;3.97;;;17.90;99.90;;;;;;5031322;28;20102;-73
2022/06/01 06:00:08;;;;;;;12.18;3.42;;;17.90;99.90;;;;;;5006471;28;20054;-73
2022/06/01 06:02:34;;;;;;;9.90;4.05;;;17.90;99.90;;;;;;5022239;28;20386;-72
2022/06/01 06:04:59;;;;;;;8.60;3.75;;;18.00;99.90;;;;;;5025643;28;20139;-72
2022/06/01 06:07:25;;;;;;;10.13;4.05;;;18.10;99.90;;;;;;5023855;28;20030;-73
2022/06/01 06:09:51;;;;;;;11.20;3.33;;;18.20;99.90;;;;;;5012165;28;20116;-72
2022/06/01 06:12:17;;;;;;;9.20;4.40;;;18.30;99.90;;;;;;5019316;28;20025;-72
2022/06/01 06:14:43;;;;;;;10.05;3.80;;;18.20;99.90;;;;;;5035197;28;20024;-73
2022/06/01 06:17:09;;;;;;;7.68;3.33;;;18.30;99.90;;;;;;5009668;28;20101;-72
2022/06/01 06:19:38;;;;;;;8.15;4.28;;;18.30;99.90;;;;;;5012709;28;20021;-72
2022/06/01 06:22:06;;;;;;;10.48;3.78;;;18.40;99.90;;;;;;5031925;28;20020;-72
2022/06/01 06:24:33;;;;;;;6.75;3.45;;;18.50;99.90;;;;;;5035468;28;20036;-73
2022/06/01 06:26:59;;;;;;;8.90;3.88;;;18.60;99.90;;;;;;5036019;28;20028;-72
2022/06/01 06:29:25;;;;;;;11.20;3.45;;;18.70;99.90;;;;;;5019960;28;20043;-73
2022/06/01 06:31:50;;;;;;;5.38;3.67;;;18.80;99.90;;;;;;5007883;28;20135;-73
2022/06/01 06:34:18;;;;;;;9.50;3.55;;;18.90;99.90;;;;;;5020206;28;20445;-73
2022/06/01 06:36:44;;;;;;;9.50;3.30;;;19.00;99.90;;;;;;5020262;28;20053;-73
2022/06/01 06:39:11;;;;;;;9.77;3.47;;;19.10;99.90;;;;;;5024710;28;20397;-73
2022/06/01 06:41:37;;;;;;;9.85;4.03;;;19.10;99.90;;;;;;5023801;28;20029;-73
2022/06/01 06:44:03;;;;;;;6.60;3.55;;;19.10;99.90;;;;;;5037983;28;20033;-73
2022/06/01 06:46:29;;;;;;;8.73;3.63;;;19.30;99.90;;;;;;5034564;28;20049;-73
2022/06/01 06:48:55;;;;;;;12.52;4.90;;;19.30;99.90;;;;;;5012056;28;20154;-73
2022/06/01 06:51:22;;;;;;;8.02;3.15;;;19.40;99.90;;;;;;5013954;28;20072;-73
2022/06/01 06:53:48;;;;;;;4.93;2.92;;;19.50;99.90;;;;;;5019744;28;20021;-73
2022/06/01 06:56:15;;;;;;;6.57;3.33;;;19.60;99.90;;;;;;5020734;28;20033;-73
2022/06/01 06:58:41;;;;;;;8.45;3.67;;;19.80;99.90;;;;;;5009347;28;20021;-73
2022/06/01 07:01:07;;;;;;;8.52;4.03;;;19.90;99.90;;;;;;5011317;28;20376;-73
2022/06/01 07:03:33;;;;;;;10.40;4.20;;;20.00;99.90;;;;;;5028285;28;20052;-73
2022/06/01 07:06:17;;;;;;;15.07;3.08;;;20.10;99.90;;;;;;5024952;28;20052;-73
2022/06/01 07:08:54;;;;;;;11.80;3.47;;;20.30;99.90;;;;;;5029605;28;20512;-73
2022/06/01 07:11:22;;;;;;;11.38;3.88;;;20.50;99.90;;;;;;5031178;28;20028;-73
2022/06/01 07:13:49;;;;;;;4.95;3.13;;;20.50;99.90;;;;;;5013575;28;20029;-73
2022/06/01 07:16:18;;;;;;;9.48;3.65;;;20.70;99.90;;;;;;5017618;28;20029;-73
2022/06/01 07:18:47;;;;;;;12.25;3.42;;;20.80;99.90;;;;;;5035466;28;20030;-73
2022/06/01 07:21:16;;;;;;;10.63;4.00;;;21.00;99.90;;;;;;5036705;28;20020;-73
2022/06/01 07:23:44;;;;;;;9.07;3.65;;;21.10;99.90;;;;;;5024781;28;20033;-73
2022/06/01 07:26:13;;;;;;;11.27;4.03;;;21.00;99.90;;;;;;5019128;28;20470;-73
2022/06/01 07:28:39;;;;;;;7.30;3.22;;;21.10;99.90;;;;;;5002226;28;20033;-73
2022/06/01 07:31:06;;;;;;;11.10;4.70;;;21.20;99.90;;;;;;5022730;28;20044;-73
2022/06/01 07:33:34;;;;;;;7.45;3.58;;;21.40;99.90;;;;;;5022127;28;20018;-73
2022/06/01 07:36:03;;;;;;;5.03;3.22;;;21.40;99.90;;;;;;5026148;28;20072;-73
2022/06/01 07:44:24;;;;;;;5.40;3.03;;;21.90;99.90;;;;;;5034350;28;20045;-73
2022/06/01 07:46:51;;;;;;;13.02;3.20;;;22.10;99.90;;;;;;5015584;28;20031;-73
2022/06/01 07:49:18;;;;;;;9.77;3.42;;;22.20;99.90;;;;;;5009825;28;20026;-73
2022/06/01 07:51:44;;;;;;;6.10;3.17;;;22.20;99.90;;;;;;5032261;28;20504;-73
2022/06/01 07:54:10;;;;;;;12.63;3.63;;;22.40;99.90;;;;;;5002398;28;20116;-72
2022/06/01 07:56:37;;;;;;;7.65;3.25;;;22.50;99.90;;;;;;5024539;28;20021;-72
2022/06/01 07:59:05;;;;;;;5.45;3.17;;;22.50;99.90;;;;;;5009685;28;20018;-72
2022/06/01 08:01:33;;;;;;;4.20;2.72;;;22.70;99.90;;;;;;5011473;28;20025;-73
2022/06/01 08:04:04;;;;;;;16.33;3.42;;;22.80;99.90;;;;;;5007312;28;20026;-72
2022/06/01 08:06:31;;;;;;;10.13;3.60;;;22.90;99.90;;;;;;5029434;28;20022;-72
2022/06/01 08:08:58;;;;;;;5.68;2.60;;;22.90;99.90;;;;;;5010427;28;20117;-73
2022/06/01 08:14:12;;;;;;;11.55;2.88;;;23.00;99.90;;;;;;5030892;28;20068;-73
2022/06/01 08:16:39;;;;;;;15.77;3.03;;;23.20;99.90;;;;;;5036260;28;20020;-73
2022/06/01 08:19:06;;;;;;;9.45;2.72;;;23.40;99.90;;;;;;5035500;28;20025;-73
2022/06/01 08:21:33;;;;;;;4.15;2.83;;;23.50;99.90;;;;;;5010483;28;20029;-73
2022/06/01 08:23:59;;;;;;;5.72;2.70;;;23.50;99.90;;;;;;5019822;28;20033;-73
2022/06/01 08:26:25;;;;;;;5.78;2.80;;;23.50;99.90;;;;;;5019468;28;20052;-72
2022/06/01 08:28:51;;;;;;;7.95;2.25;;;23.50;99.90;;;;;;5023959;28;20037;-73
2022/06/01 08:31:18;;;;;;;5.97;3.03;;;23.50;99.90;;;;;;5008522;28;20107;-74
2022/06/01 08:33:43;;;;;;;4.72;2.25;;;23.70;99.90;;;;;;5028302;28;20026;-73
2022/06/01 08:36:09;;;;;;;5.70;2.72;;;23.80;99.90;;;;;;5029769;28;20014;-73
2022/06/01 08:38:35;;;;;;;6.60;3.20;;;23.80;99.90;;;;;;5030187;28;20030;-72
2022/06/01 08:41:06;;;;;;;9.38;3.03;;;23.90;99.90;;;;;;5016237;28;20026;-73
2022/06/01 08:43:46;;;;;;;5.20;3.00;;;24.00;99.90;;;;;;5032858;28;20112;-73
2022/06/01 08:46:14;;;;;;;5.87;3.00;;;24.30;99.90;;;;;;5035124;28;20025;-73
2022/06/01 08:49:01;;;;;;;4.45;2.60;;;24.40;99.90;;;;;;5036181;28;20048;-73
2022/06/01 08:51:29;;;;;;;4.18;2.45;;;24.50;99.90;;;;;;5020923;28;20029;-73
2022/06/01 08:53:58;;;;;;;6.95;2.90;;;24.70;99.90;;;;;;5014427;28;20461;-73
2022/06/01 08:56:45;;;;;;;5.82;2.83;;;24.80;99.90;;;;;;5022720;28;20026;-73
2022/06/01 08:59:29;;;;;;;8.52;2.38;;;24.80;99.90;;;;;;5022535;28;20010;-73
2022/06/01 09:02:05;;;;;;;9.35;2.60;;;25.00;99.90;;;;;;5023900;28;20026;-73
2022/06/01 09:04:43;;;;;;;12.57;3.13;;;25.10;99.90;;;;;;5026177;28;20529;-72
2022/06/01 09:07:46;;;;;;;10.32;2.47;;;25.20;99.90;;;;;;5008498;28;20021;-72
2022/06/01 09:10:31;;;;;;;7.15;2.80;;;25.30;99.90;;;;;;5026700;28;20029;-72
2022/06/01 09:13:09;;;;;;;5.70;2.65;;;25.40;99.90;;;;;;5038365;28;20033;-73
2022/06/01 09:15:49;;;;;;;11.93;2.78;;;25.40;99.90;;;;;;5036501;28;20037;-73
2022/06/01 09:18:20;;;;;;;6.25;2.15;;;25.40;99.90;;;;;;5032182;28;20501;-73
2022/06/01 09:23:31;;;;;;;4.13;2.28;;;25.50;99.90;;;;;;5022503;28;20037;-72
2022/06/01 09:25:57;;;;;;;9.90;3.03;;;25.60;99.90;;;;;;5008571;28;20056;-73
2022/06/01 09:28:27;;;;;;;6.47;2.38;;;25.80;99.90;;;;;;5030623;28;20022;-73
2022/06/01 09:31:08;;;;;;;8.73;2.40;;;25.80;99.90;;;;;;5031226;28;20402;-73
2022/06/01 09:33:36;;;;;;;5.18;3.10;;;25.90;99.90;;;;;;5008391;28;20022;-73
2022/06/01 09:36:07;;;;;;;8.50;2.47;;;25.90;99.90;;;;;;5033156;28;20021;-73
2022/06/01 09:38:53;;;;;;;6.47;2.65;;;26.00;99.90;;;;;;5030258;28;20132;-73
2022/06/01 09:41:40;;;;;;;6.95;3.00;;;26.10;99.90;;;;;;5015576;28;20030;-73
2022/06/01 09:44:12;;;;;;;4.80;2.40;;;26.10;99.90;;;;;;5027249;28;20083;-73
2022/06/01 09:46:40;;;;;;;5.50;2.83;;;26.30;99.90;;;;;;5037625;28;20035;-73
2022/06/01 09:49:25;;;;;;;5.95;2.80;;;26.30;99.10;;;;;;5039315;28;20032;-73
2022/06/01 09:51:58;;;;;;;5.55;2.38;;;26.40;99.40;;;;;;5023332;28;20029;-73
2022/06/01 09:54:30;;;;;;;4.60;2.50;;;26.50;98.80;;;;;;5021386;28;20049;-73
2022/06/01 09:56:57;;;;;;;11.38;2.55;;;26.60;98.90;;;;;;5022471;28;20022;-73
2022/06/01 10:08:29;;;;;;;5.47;2.50;;;26.60;98.10;;;;;;5030905;28;20155;-74
2022/06/01 10:10:59;;;;;;;6.13;2.83;;;26.70;99.20;;;;;;5028338;28;20026;-74
2022/06/01 10:13:35;;;;;;;4.35;2.55;;;26.70;97.90;;;;;;5034403;28;20075;-74
2022/06/01 10:16:35;;;;;;;6.13;2.90;;;26.80;98.60;;;;;;5021258;28;20026;-74
2022/06/01 10:19:03;;;;;;;6.97;2.30;;;26.90;97.80;;;;;;5035268;28;20014;-73
2022/06/01 10:21:44;;;;;;;10.15;2.50;;;27.00;97.00;;;;;;5012426;28;20061;-73
2022/06/01 10:24:20;;;;;;;8.98;3.05;;;27.00;97.10;;;;;;5020898;28;20026;-73
2022/06/01 10:26:55;;;;;;;8.65;2.05;;;27.10;96.90;;;;;;5021125;28;20030;-73
2022/06/01 10:29:28;;;;;;;10.18;3.25;;;27.30;96.70;;;;;;5024358;28;20082;-74
2022/06/01 10:32:10;;;;;;;8.77;2.90;;;27.50;96.50;;;;;;5010135;28;20026;-74
2022/06/01 10:34:58;;;;;;;10.38;2.97;;;27.60;96.10;;;;;;5031131;28;20429;-73
2022/06/01 10:37:30;;;;;;;11.88;2.33;;;27.50;94.80;;;;;;5033771;28;20018;-73
2022/06/01 10:40:19;;;;;;;10.05;2.85;;;27.50;94.60;;;;;;5025138;28;20097;-73
2022/06/01 10:45:50;;;;;;;9.88;2.78;;;27.60;95.30;;;;;;5025880;28;20508;-73
2022/06/01 10:48:38;;;;;;;6.38;2.20;;;27.60;96.20;;;;;;5018474;28;20053;-73
2022/06/01 10:51:21;;;;;;;9.82;2.88;;;27.80;95.70;;;;;;5008739;28;20036;-74
2022/06/01 10:54:10;;;;;;;5.78;1.95;;;27.80;95.50;;;;;;5019485;28;20041;-73
2022/06/01 10:56:37;;;;;;;7.60;2.60;;;27.90;94.80;;;;;;5022877;28;20022;-73
2022/06/01 10:59:12;;;;;;;6.25;2.40;;;28.00;95.30;;;;;;5021719;28;20042;-72
2022/06/01 11:01:51;;;;;;;10.15;3.38;;;27.80;95.00;;;;;;5026451;28;20010;-71
2022/06/01 11:04:40;;;;;;;8.98;2.40;;;27.90;95.10;;;;;;5023142;28;20017;-71
2022/06/01 11:07:37;;;;;;;10.05;2.75;;;28.00;94.60;;;;;;5031840;28;20033;-71
2022/06/01 11:10:12;;;;;;;7.00;2.20;;;28.00;95.80;;;;;;5025713;28;20030;-71
2022/06/01 11:12:47;;;;;;;9.52;2.35;;;28.00;95.30;;;;;;5028352;28;20049;-72
2022/06/01 11:15:24;;;;;;;11.02;2.13;;;28.10;95.80;;;;;;5033542;28;20029;-72
2022/06/01 11:18:04;;;;;;;9.93;2.22;;;28.00;95.30;;;;;;5032979;28;20355;-72
2022/06/01 11:20:57;;;;;;;8.20;3.05;;;28.00;96.10;;;;;;5034104;28;20076;-72
2022/06/01 11:23:33;;;;;;;10.50;2.78;;;28.10;96.20;;;;;;5027932;28;20091;-72
2022/06/01 11:26:32;;;;;;;8.35;2.67;;;28.10;95.90;;;;;;5032913;28;20033;-73
2022/06/01 11:29:07;;;;;;;7.22;2.92;;;28.00;94.80;;;;;;5020489;28;20037;-72
2022/06/01 11:31:36;;;;;;;11.18;2.85;;;28.20;95.90;;;;;;5020356;28;20686;-72
2022/06/01 11:34:16;;;;;;;5.15;2.15;;;28.30;95.20;;;;;;5015674;28;20048;-72
2022/06/01 11:37:26;;;;;;;9.18;2.47;;;28.40;95.60;;;;;;5034015;28;20021;-72
2022/06/01 11:40:07;;;;;;;11.43;3.10;;;28.40;95.10;;;;;;4990588;28;20094;-72
2022/06/01 11:43:17;;;;;;;7.03;2.47;;;28.50;95.80;;;;;;5031356;28;20025;-72
2022/06/01 11:45:48;;;;;;;12.48;3.10;;;28.60;95.40;;;;;;4992998;28;20033;-72
2022/06/01 11:48:20;;;;;;;8.57;2.40;;;28.60;95.10;;;;;;5010928;28;20045;-72
2022/06/01 11:51:16;;;;;;;6.18;2.33;;;28.50;94.80;;;;;;5036685;28;20033;-73
2022/06/01 11:53:44;;;;;;;6.05;2.50;;;28.70;94.70;;;;;;5023807;28;20083;-73
2022/06/01 11:56:14;;;;;;;5.72;2.22;;;28.60;94.10;;;;;;5035672;28;20091;-72
2022/06/01 11:58:42;;;;;;;;;;;28.70;94.70;;;;;;5012879;28;20053;-73
2022/06/01 12:01:31;;;;;;;14.65;3.53;;;28.60;93.80;;;;;;5018651;28;19906;-72
2022/06/01 12:04:18;;;;;;;6.65;2.65;;;28.80;94.70;;;;;;5018854;28;20106;-72
2022/06/01 12:06:55;;;;;;;13.63;2.42;;;28.80;96.40;;;;;;5023505;28;20108;-72
2022/06/01 12:09:48;;;;;;;6.47;2.78;;;29.00;95.10;;;;;;5028132;28;20064;-72
2022/06/01 12:12:33;;;;;;;8.48;2.40;;;29.20;93.70;;;;;;5005390;28;20199;-73
2022/06/01 12:15:29;;;;;;;8.57;2.85;;;29.30;93.50;;;;;;5023865;28;20029;-72
2022/06/01 12:18:06;;;;;;;9.27;2.88;;;29.40;93.50;;;;;;5012239;28;20565;-72
2022/06/01 12:20:32;;;;;;;10.75;2.30;;;29.40;93.80;;;;;;5026966;28;20022;-72
2022/06/01 12:28:53;;;;;;;6.78;2.53;;;29.50;92.80;;;;;;5033772;28;20576;-73
2022/06/01 12:31:31;;;;;;;8.50;2.45;;;29.60;93.40;;;;;;5036076;28;20025;-73
2022/06/01 12:34:06;;;;;;;6.88;2.20;;;29.70;94.10;;;;;;5002553;28;20375;-72
2022/06/01 12:36:38;;;;;;;10.77;2.75;;;29.80;92.50;;;;;;5000471;28;20037;-73
2022/06/01 12:39:19;;;;;;;11.98;2.45;;;29.80;92.30;;;;;;5021664;28;20018;-73
2022/06/01 12:41:51;;;;;;;8.70;2.88;;;29.90;93.70;;;;;;5013007;28;20516;-72
2022/06/01 12:44:18;;;;;;;4.45;2.10;;;29.90;92.40;;;;;;5007815;28;20045;-72
2022/06/01 12:46:51;;;;;;;5.97;2.60;;;29.90;92.90;;;;;;5026016;28;20106;-72
2022/06/01 12:49:33;;;;;;;7.25;2.70;;;30.00;92.10;;;;;;5010049;28;20030;-72
2022/06/01 12:52:18;;;;;;;8.65;2.65;;;30.00;92.40;;;;;;5013364;28;20026;-72
2022/06/01 12:54:49;;;;;;;4.65;1.92;;;30.00;91.40;;;;;;5029158;28;20030;-72
2022/06/01 12:57:32;;;;;;;10.77;2.40;;;30.10;91.90;;;;;;5034120;28;20021;-73
2022/06/01 13:00:13;;;;;;;9.82;2.75;;;30.00;91.60;;;;;;5015877;28;20056;-73
2022/06/01 13:02:42;;;;;;;11.05;2.72;;;29.90;91.00;;;;;;5035869;28;20397;-72
2022/06/01 13:05:11;;;;;;;6.32;2.47;;;30.10;92.40;;;;;;5029548;28;20173;-72
2022/06/01 13:07:41;;;;;;;13.65;2.30;;;30.30;90.90;;;;;;5018996;28;20025;-73
2022/06/01 13:10:11;;;;;;;8.68;2.10;;;30.20;91.50;;;;;;5019404;28;20101;-72
2022/06/01 13:12:38;;;;;;;10.73;2.03;;;30.30;90.90;;;;;;5028940;28;20378;-72
2022/06/01 13:15:16;;;;;;;11.13;2.05;;;30.30;91.20;;;;;;5037244;28;20061;-72
2022/06/01 13:18:12;;;;;;;11.75;2.35;;;30.50;90.70;;;;;;5037849;28;20018;-73
2022/06/01 13:20:42;;;;;;;7.45;2.17;;;30.40;90.80;;;;;;5021430;28;20032;-73
2022/06/01 13:23:28;;;;;;;5.57;1.92;;;30.60;90.50;;;;;;5033805;28;20477;-73
2022/06/01 13:25:57;;;;;;;9.18;2.03;;;30.40;89.40;;;;;;5015746;28;20033;-72
2022/06/01 13:28:25;;;;;;;6.13;2.58;;;30.40;90.60;;;;;;5035591;28;20026;-73
2022/06/01 13:30:51;;;;;;;6.78;2.28;;;30.60;90.20;;;;;;5019471;28;20486;-72
2022/06/01 13:33:44;;;;;;;7.43;2.22;;;30.50;90.00;;;;;;5038069;28;20025;-71
2022/06/01 13:36:35;;;;;;;9.88;2.30;;;30.70;90.80;;;;;;5016451;28;20041;-72
2022/06/01 13:39:08;;;;;;;6.53;2.05;;;30.90;90.40;;;;;;5021565;28;20026;-73
2022/06/01 13:42:14;;;;;;;7.40;2.65;;;30.90;89.40;;;;;;5021877;28;20372;-72
2022/06/01 13:45:08;;;;;;;8.65;2.40;;;31.00;88.60;;;;;;5021629;28;20030;-73
2022/06/01 13:47:40;;;;;;;9.07;2.15;;;31.20;88.10;;;;;;5001831;28;20061;-72
2022/06/01 13:50:15;;;;;;;12.82;2.75;;;31.30;88.20;;;;;;5011394;28;20033;-72
2022/06/01 13:53:00;;;;;;;8.82;2.30;;;31.30;88.30;;;;;;5027399;28;20032;-73